Time;durP1;ratioP1;P1;durP2;ratioP2;P2;SDS_P1;SDS_P2;PMS_P1;PMS_P2;Temp;Humidity;BMP_temperature;BMP_pressure;BME280_temperature;BME280_humidity;BME280_pressure;Samples;Min_cycle;Max_cycle;Signal;HPM_P1;HPM_P2
2022/01/08 00:01:22;;;;;;;2.77;1.90;;;;;;;;;;5058980;28;20204;-75
2022/01/08 00:04:08;;;;;;;2.23;1.47;;;;;;;;;;5065709;28;20296;-74
2022/01/08 00:06:56;;;;;;;2.13;1.80;;;;;;;;;;5066400;28;20249;-73
2022/01/08 00:09:43;;;;;;;2.13;1.60;;;;;;;;;;5064137;28;20703;-75
2022/01/08 00:12:31;;;;;;;1.47;1.33;;;;;;;;;;5063194;28;20259;-74
2022/01/08 00:15:18;;;;;;;2.13;1.73;;;;;;;;;;5065038;28;20261;-75
2022/01/08 00:18:05;;;;;;;1.93;1.70;;;;;;;;;;5066403;28;20586;-75
2022/01/08 00:20:54;;;;;;;2.53;1.80;;;;;;;;;;5064783;28;20258;-74
2022/01/08 00:23:41;;;;;;;1.87;1.63;;;;;;;;;;5062658;28;20203;-75
2022/01/08 00:26:28;;;;;;;1.83;1.47;;;;;;;;;;5063813;28;20795;-75
2022/01/08 00:29:16;;;;;;;1.50;1.40;;;;;;;;;;5062981;28;20207;-72
2022/01/08 00:32:03;;;;;;;1.57;1.47;;;;;;;;;;5065296;28;20315;-75
2022/01/08 00:34:50;;;;;;;1.67;1.57;;;;;;;;;;5063202;28;20220;-74
2022/01/08 00:37:38;;;;;;;1.77;1.63;;;;;;;;;;5068489;28;20312;-74
2022/01/08 00:40:25;;;;;;;2.47;1.77;;;;;;;;;;5063996;28;20200;-74
2022/01/08 00:43:12;;;;;;;2.00;1.33;;;;;;;;;;5063843;28;20257;-75
2022/01/08 00:46:00;;;;;;;1.77;1.37;;;;;;;;;;5064489;28;20238;-75
2022/01/08 00:48:47;;;;;;;2.07;1.20;;;;;;;;;;5064264;28;20613;-73
2022/01/08 00:51:34;;;;;;;1.57;1.40;;;;;;;;;;5065885;28;20838;-75
2022/01/08 00:54:20;;;;;;;1.80;1.30;;;;;;;;;;5065928;28;20737;-74
2022/01/08 00:57:07;;;;;;;1.50;1.33;;;;;;;;;;5063138;28;20281;-74
2022/01/08 00:59:54;;;;;;;1.47;1.30;;;;;;;;;;5060773;28;20326;-75
2022/01/08 01:02:43;;;;;;;1.80;1.30;;;;;;;;;;5060579;28;20287;-75
2022/01/08 01:05:30;;;;;;;1.77;1.50;;;;;;;;;;5062632;28;20726;-73
2022/01/08 01:08:17;;;;;;;2.13;1.10;;;;;;;;;;5062598;28;20270;-75
2022/01/08 01:11:04;;;;;;;1.37;1.20;;;;;;;;;;5061497;28;20289;-74
2022/01/08 01:13:51;;;;;;;1.13;1.13;;;;;;;;;;5065207;28;20211;-72
2022/01/08 01:16:38;;;;;;;1.97;1.37;;;;;;;;;;5067038;28;20232;-74
2022/01/08 01:19:26;;;;;;;1.27;1.17;;;;;;;;;;5065197;28;20213;-74
2022/01/08 01:22:16;;;;;;;1.57;1.20;;;;;;;;;;5066749;28;20207;-75
2022/01/08 01:25:06;;;;;;;1.43;1.20;;;;;;;;;;5064571;28;20748;-75
2022/01/08 01:43:28;;;;;;;1.00;0.80;;;;;;;;;;5060872;28;20706;-75
2022/01/08 01:49:21;;;;;;;1.60;1.27;;;;;;;;;;5065367;28;20237;-75
2022/01/08 01:52:11;;;;;;;1.30;0.97;;;;;;;;;;5064836;28;20220;-75
2022/01/08 01:54:57;;;;;;;1.57;1.23;;;;;;;;;;5063211;28;20282;-74
2022/01/08 01:57:45;;;;;;;1.57;1.47;;;;;;;;;;5062164;28;20677;-75
2022/01/08 02:00:32;;;;;;;2.10;1.33;;;;;;;;;;5062444;28;20204;-75
2022/01/08 02:03:19;;;;;;;1.87;1.50;;;;;;;;;;5062495;28;20205;-75
2022/01/08 02:06:06;;;;;;;1.40;1.13;;;;;;;;;;5066287;28;20199;-74
2022/01/08 02:08:54;;;;;;;1.43;1.20;;;;;;;;;;5060167;28;20881;-75
2022/01/08 02:11:58;;;;;;;1.47;1.23;;;;;;;;;;5060270;28;20212;-74
2022/01/08 02:14:46;;;;;;;1.30;1.20;;;;;;;;;;5062167;28;20299;-74
2022/01/08 02:17:33;;;;;;;1.27;1.17;;;;;;;;;;5064142;28;20610;-74
2022/01/08 02:20:21;;;;;;;1.07;1.00;;;;;;;;;;5063834;28;20248;-74
2022/01/08 02:23:08;;;;;;;1.57;1.00;;;;;;;;;;5063097;28;20676;-74
2022/01/08 02:26:03;;;;;;;1.30;1.20;;;;;;;;;;5061987;28;20220;-75
2022/01/08 02:28:50;;;;;;;1.50;1.17;;;;;;;;;;5064400;28;20257;-74
2022/01/08 02:31:37;;;;;;;1.67;1.30;;;;;;;;;;5060845;28;20346;-75
2022/01/08 02:34:25;;;;;;;1.70;1.20;;;;;;;;;;5063985;28;20292;-75
2022/01/08 02:37:14;;;;;;;1.10;0.93;;;;;;;;;;5062219;28;20210;-74
2022/01/08 02:40:02;;;;;;;2.03;1.30;;;;;;;;;;5064985;28;20211;-75
2022/01/08 02:42:52;;;;;;;1.67;1.03;;;;;;;;;;5062585;28;20344;-74
2022/01/08 02:45:39;;;;;;;1.20;1.00;;;;;;;;;;5065263;28;20200;-73
2022/01/08 02:48:26;;;;;;;1.17;1.10;;;;;;;;;;5061454;28;20201;-74
2022/01/08 02:51:13;;;;;;;1.13;1.03;;;;;;;;;;5065068;28;20547;-75
2022/01/08 02:54:01;;;;;;;1.13;1.03;;;;;;;;;;5061928;28;20660;-75
2022/01/08 02:56:50;;;;;;;1.60;1.20;;;;;;;;;;5060042;28;20222;-75
2022/01/08 02:59:37;;;;;;;1.13;0.90;;;;;;;;;;5062251;28;20636;-75
2022/01/08 03:02:24;;;;;;;1.83;1.27;;;;;;;;;;5063849;28;20692;-73
2022/01/08 03:05:12;;;;;;;1.53;1.00;;;;;;;;;;5060369;28;20312;-75
2022/01/08 03:07:58;;;;;;;1.07;1.00;;;;;;;;;;5063669;28;20227;-75
2022/01/08 03:10:47;;;;;;;1.20;1.03;;;;;;;;;;5062201;28;20309;-75
2022/01/08 03:13:34;;;;;;;1.07;0.97;;;;;;;;;;5059835;28;20253;-76
2022/01/08 03:16:21;;;;;;;0.87;0.87;;;;;;;;;;5062659;28;20321;-74
2022/01/08 03:19:11;;;;;;;1.27;1.17;;;;;;;;;;5061770;28;20242;-75
2022/01/08 03:22:03;;;;;;;1.60;1.03;;;;;;;;;;5062279;28;20693;-75
2022/01/08 03:24:49;;;;;;;1.30;1.20;;;;;;;;;;5060777;28;20566;-74
2022/01/08 03:27:38;;;;;;;1.00;0.90;;;;;;;;;;5057656;28;20666;-74
2022/01/08 03:30:26;;;;;;;0.93;0.90;;;;;;;;;;5063557;28;20199;-74
2022/01/08 03:33:13;;;;;;;1.13;0.90;;;;;;;;;;5060580;28;21370;-75
2022/01/08 03:36:00;;;;;;;1.00;0.83;;;;;;;;;;5062637;28;20681;-74
2022/01/08 03:38:48;;;;;;;0.83;0.67;;;;;;;;;;5066405;28;20262;-73
2022/01/08 03:41:35;;;;;;;1.07;0.90;;;;;;;;;;5064990;28;20218;-75
2022/01/08 03:44:24;;;;;;;0.80;0.80;;;;;;;;;;5065462;28;20196;-75
2022/01/08 03:47:28;;;;;;;0.97;0.97;;;;;;;;;;5064779;28;20248;-75
2022/01/08 03:50:15;;;;;;;0.90;0.83;;;;;;;;;;5063604;28;20211;-75
2022/01/08 03:53:02;;;;;;;1.20;1.10;;;;;;;;;;5067268;28;20709;-75
2022/01/08 03:55:49;;;;;;;1.73;1.20;;;;;;;;;;5064741;28;20711;-76
2022/01/08 03:58:36;;;;;;;1.40;0.87;;;;;;;;;;5066825;28;20219;-75
2022/01/08 04:01:24;;;;;;;1.30;1.20;;;;;;;;;;5066231;28;20235;-74
2022/01/08 04:04:11;;;;;;;0.80;0.80;;;;;;;;;;5069498;28;20227;-74
2022/01/08 04:06:58;;;;;;;1.17;0.80;;;;;;;;;;5066473;28;20616;-75
2022/01/08 04:09:45;;;;;;;1.00;0.90;;;;;;;;;;5062747;28;20371;-75
2022/01/08 04:12:38;;;;;;;1.27;1.17;;;;;;;;;;5063919;28;20222;-74
2022/01/08 04:15:37;;;;;;;1.10;0.90;;;;;;;;;;5065424;28;20280;-74
2022/01/08 04:18:25;;;;;;;1.03;0.93;;;;;;;;;;5068149;28;20218;-75
2022/01/08 04:21:45;;;;;;;1.43;1.07;;;;;;;;;;5066042;28;20236;-75
2022/01/08 04:24:24;;;;;;;0.90;0.80;;;;;;;;;;5065055;28;20217;-75
2022/01/08 04:27:11;;;;;;;1.00;0.90;;;;;;;;;;5061237;28;20222;-74
2022/01/08 04:29:58;;;;;;;1.50;0.93;;;;;;;;;;5065418;28;20541;-75
2022/01/08 04:32:45;;;;;;;1.07;1.00;;;;;;;;;;5064988;28;20265;-76
2022/01/08 04:35:34;;;;;;;1.57;1.00;;;;;;;;;;5062832;28;20261;-75
2022/01/08 04:38:20;;;;;;;1.43;1.00;;;;;;;;;;5067117;28;20208;-75
2022/01/08 04:41:07;;;;;;;1.20;1.10;;;;;;;;;;5067449;28;20219;-75
2022/01/08 04:43:54;;;;;;;1.67;1.23;;;;;;;;;;5065720;28;20214;-75
2022/01/08 04:46:41;;;;;;;0.90;0.90;;;;;;;;;;5065807;28;20215;-76
2022/01/08 04:49:28;;;;;;;0.80;0.80;;;;;;;;;;5066425;28;20211;-75
2022/01/08 04:52:17;;;;;;;0.90;0.90;;;;;;;;;;5064596;28;20203;-76
2022/01/08 04:55:04;;;;;;;1.10;1.10;;;;;;;;;;5063567;28;20258;-75
2022/01/08 04:57:51;;;;;;;1.60;0.90;;;;;;;;;;5064496;28;20215;-75
2022/01/08 05:00:39;;;;;;;1.33;0.80;;;;;;;;;;5064179;28;20286;-75
2022/01/08 05:03:26;;;;;;;0.87;0.70;;;;;;;;;;5066928;28;20635;-76
2022/01/08 05:06:13;;;;;;;0.87;0.87;;;;;;;;;;5065424;28;20207;-76
2022/01/08 05:09:01;;;;;;;0.80;0.80;;;;;;;;;;5063743;28;20973;-75
2022/01/08 05:11:48;;;;;;;0.63;0.63;;;;;;;;;;5062423;28;20208;-76
2022/01/08 05:14:35;;;;;;;2.03;0.90;;;;;;;;;;5064529;28;20282;-76
2022/01/08 05:17:27;;;;;;;1.20;1.07;;;;;;;;;;5064669;28;20295;-75
2022/01/08 05:20:14;;;;;;;0.80;0.80;;;;;;;;;;5065845;28;20578;-75
2022/01/08 05:23:03;;;;;;;0.80;0.80;;;;;;;;;;5063953;28;20207;-75
2022/01/08 05:25:53;;;;;;;0.83;0.80;;;;;;;;;;5067485;28;20204;-76
2022/01/08 05:28:39;;;;;;;0.70;0.63;;;;;;;;;;5064638;28;20203;-76
2022/01/08 05:31:26;;;;;;;1.27;0.80;;;;;;;;;;5065851;28;20304;-76
2022/01/08 05:34:13;;;;;;;1.40;1.30;;;;;;;;;;5064018;28;20232;-75
2022/01/08 05:37:00;;;;;;;0.83;0.83;;;;;;;;;;5062516;28;20288;-73
2022/01/08 05:39:48;;;;;;;0.60;0.60;;;;;;;;;;5065440;28;20214;-75
2022/01/08 05:42:37;;;;;;;0.60;0.60;;;;;;;;;;5063978;28;20207;-74
2022/01/08 05:45:24;;;;;;;0.90;0.63;;;;;;;;;;5061414;28;20282;-75
2022/01/08 05:48:12;;;;;;;2.33;0.70;;;;;;;;;;5061431;28;20305;-75
2022/01/08 05:50:59;;;;;;;0.83;0.80;;;;;;;;;;5063304;28;20230;-75
2022/01/08 05:53:46;;;;;;;0.77;0.70;;;;;;;;;;5063821;28;20310;-75
2022/01/08 05:56:33;;;;;;;1.03;0.93;;;;;;;;;;5061318;28;20207;-76
2022/01/08 05:59:22;;;;;;;1.27;1.17;;;;;;;;;;5061818;28;20200;-75
2022/01/08 06:02:09;;;;;;;0.53;0.50;;;;;;;;;;5057943;28;20262;-76
2022/01/08 06:04:56;;;;;;;0.60;0.60;;;;;;;;;;5062107;28;20230;-75
2022/01/08 06:07:43;;;;;;;0.90;0.63;;;;;;;;;;5064690;28;20695;-75
2022/01/08 06:10:30;;;;;;;0.90;0.70;;;;;;;;;;5061886;28;20226;-75
2022/01/08 06:13:17;;;;;;;0.80;0.80;;;;;;;;;;5063782;28;20309;-75
2022/01/08 06:16:05;;;;;;;0.77;0.77;;;;;;;;;;5064257;28;20670;-75
2022/01/08 06:18:52;;;;;;;0.93;0.70;;;;;;;;;;5065514;28;20683;-73
2022/01/08 06:21:39;;;;;;;0.57;0.50;;;;;;;;;;5061620;28;20318;-76
2022/01/08 06:24:26;;;;;;;1.10;0.70;;;;;;;;;;5063020;28;20299;-74
2022/01/08 06:27:13;;;;;;;0.70;0.70;;;;;;;;;;5062210;28;20202;-75
2022/01/08 06:30:00;;;;;;;0.77;0.70;;;;;;;;;;5066027;28;20337;-75
2022/01/08 06:32:48;;;;;;;1.33;0.90;;;;;;;;;;5065216;28;20627;-75
2022/01/08 06:35:35;;;;;;;1.03;0.70;;;;;;;;;;5061083;28;20371;-74
2022/01/08 06:38:22;;;;;;;0.77;0.77;;;;;;;;;;5064687;28;20290;-75
2022/01/08 06:41:09;;;;;;;0.90;0.90;;;;;;;;;;5060504;28;20316;-75
2022/01/08 06:43:56;;;;;;;1.17;0.70;;;;;;;;;;5062668;28;20672;-75
2022/01/08 06:46:43;;;;;;;0.63;0.63;;;;;;;;;;5064195;28;20208;-75
2022/01/08 06:49:31;;;;;;;0.67;0.67;;;;;;;;;;5058111;28;20234;-76
2022/01/08 06:52:18;;;;;;;0.80;0.80;;;;;;;;;;5064964;28;20266;-70
2022/01/08 06:55:06;;;;;;;0.73;0.73;;;;;;;;;;5062974;28;20363;-71
2022/01/08 06:57:54;;;;;;;1.20;0.97;;;;;;;;;;5063332;28;20261;-71
2022/01/08 07:00:41;;;;;;;1.23;0.93;;;;;;;;;;5062704;28;20199;-71
2022/01/08 07:03:28;;;;;;;0.63;0.63;;;;;;;;;;5061365;28;20333;-71
2022/01/08 07:06:17;;;;;;;0.73;0.70;;;;;;;;;;5065044;28;20216;-71
2022/01/08 07:09:06;;;;;;;0.77;0.77;;;;;;;;;;5062883;28;20350;-71
2022/01/08 07:11:52;;;;;;;1.43;0.80;;;;;;;;;;5061459;28;20214;-71
2022/01/08 07:14:39;;;;;;;1.03;0.80;;;;;;;;;;5068026;28;20222;-71
2022/01/08 07:17:26;;;;;;;0.67;0.67;;;;;;;;;;5066058;28;20308;-71
2022/01/08 07:20:13;;;;;;;0.50;0.50;;;;;;;;;;5067089;28;20742;-71
2022/01/08 07:23:02;;;;;;;0.60;0.60;;;;;;;;;;5066877;28;20308;-71
2022/01/08 07:25:49;;;;;;;0.53;0.53;;;;;;;;;;5062875;28;20304;-71
2022/01/08 07:28:37;;;;;;;0.70;0.67;;;;;;;;;;5068837;28;20294;-71
2022/01/08 07:31:24;;;;;;;0.50;0.50;;;;;;;;;;5063900;28;20238;-71
2022/01/08 07:34:11;;;;;;;0.57;0.57;;;;;;;;;;5067727;28;20239;-71
2022/01/08 07:36:58;;;;;;;1.13;1.00;;;;;;;;;;5066946;28;20238;-71
2022/01/08 07:39:47;;;;;;;0.90;0.63;;;;;;;;;;5065512;28;20211;-71
2022/01/08 07:42:34;;;;;;;0.70;0.70;;;;;;;;;;5066044;28;20787;-71
2022/01/08 07:45:21;;;;;;;0.57;0.57;;;;;;;;;;5064780;28;20294;-71
2022/01/08 07:48:08;;;;;;;0.60;0.60;;;;;;;;;;5062954;28;20215;-71
2022/01/08 07:50:55;;;;;;;1.37;0.83;;;;;;;;;;5068331;28;20290;-71
2022/01/08 07:53:42;;;;;;;0.83;0.83;;;;;;;;;;5066031;28;20224;-71
2022/01/08 07:56:32;;;;;;;0.97;0.70;;;;;;;;;;5065594;28;20259;-71
2022/01/08 07:59:19;;;;;;;0.77;0.73;;;;;;;;;;5066139;28;20297;-71
2022/01/08 08:02:06;;;;;;;0.77;0.77;;;;;;;;;;5064069;28;20253;-71
2022/01/08 08:04:53;;;;;;;0.60;0.60;;;;;;;;;;5065512;28;20251;-71
2022/01/08 08:07:41;;;;;;;0.90;0.57;;;;;;;;;;5062624;28;20305;-71
2022/01/08 08:10:29;;;;;;;1.03;0.70;;;;;;;;;;5069054;28;20234;-71
2022/01/08 08:13:18;;;;;;;0.83;0.70;;;;;;;;;;5065715;28;20208;-71
2022/01/08 08:16:05;;;;;;;0.60;0.60;;;;;;;;;;5064519;28;20241;-71
2022/01/08 08:18:52;;;;;;;0.77;0.77;;;;;;;;;;5066325;28;20289;-71
2022/01/08 08:21:39;;;;;;;0.67;0.67;;;;;;;;;;5064867;28;20215;-71
2022/01/08 08:24:26;;;;;;;0.60;0.57;;;;;;;;;;5063424;28;20213;-71
2022/01/08 08:27:13;;;;;;;0.70;0.70;;;;;;;;;;5064760;28;20206;-71
2022/01/08 08:30:01;;;;;;;0.60;0.60;;;;;;;;;;5063519;28;20211;-72
2022/01/08 08:32:49;;;;;;;0.97;0.60;;;;;;;;;;5066307;28;20234;-71
2022/01/08 08:35:36;;;;;;;0.90;0.90;;;;;;;;;;5064387;28;20268;-71
2022/01/08 08:38:23;;;;;;;0.63;0.63;;;;;;;;;;5062275;28;20702;-71
2022/01/08 08:41:10;;;;;;;0.67;0.60;;;;;;;;;;5064705;28;20251;-71
2022/01/08 08:43:57;;;;;;;0.50;0.50;;;;;;;;;;5064302;28;20276;-71
2022/01/08 08:46:46;;;;;;;0.67;0.60;;;;;;;;;;5066562;28;20247;-71
2022/01/08 08:49:33;;;;;;;0.70;0.70;;;;;;;;;;5066544;28;20307;-71
2022/01/08 08:52:21;;;;;;;1.03;0.57;;;;;;;;;;5060538;28;20215;-71
2022/01/08 08:55:09;;;;;;;0.60;0.60;;;;;;;;;;5062189;28;20721;-71
2022/01/08 08:57:56;;;;;;;0.57;0.57;;;;;;;;;;5066106;28;20239;-71
2022/01/08 09:00:43;;;;;;;0.57;0.57;;;;;;;;;;5065501;28;20215;-71
2022/01/08 09:03:32;;;;;;;0.90;0.90;;;;;;;;;;5067229;28;20215;-71
2022/01/08 09:06:19;;;;;;;1.20;0.80;;;;;;;;;;5062902;28;20685;-71
2022/01/08 09:09:06;;;;;;;1.03;0.63;;;;;;;;;;5065295;28;20319;-71
2022/01/08 09:11:54;;;;;;;0.60;0.60;;;;;;;;;;5063680;28;20274;-71
2022/01/08 09:14:41;;;;;;;0.80;0.60;;;;;;;;;;5062837;28;20228;-71
2022/01/08 09:17:28;;;;;;;0.70;0.70;;;;;;;;;;5065106;28;20626;-71
2022/01/08 09:20:17;;;;;;;1.10;0.80;;;;;;;;;;5061443;28;20201;-71
2022/01/08 09:23:05;;;;;;;0.70;0.70;;;;;;;;;;5065547;28;20711;-71
2022/01/08 09:25:51;;;;;;;0.63;0.63;;;;;;;;;;5062957;28;20229;-71
2022/01/08 09:28:39;;;;;;;0.70;0.70;;;;;;;;;;5065025;28;20348;-71
2022/01/08 09:31:25;;;;;;;0.87;0.70;;;;;;;;;;5064923;28;20203;-71
2022/01/08 09:34:13;;;;;;;0.80;0.80;;;;;;;;;;5063859;28;20230;-71
2022/01/08 09:37:01;;;;;;;0.70;0.70;;;;;;;;;;5062432;28;20845;-71
2022/01/08 09:39:48;;;;;;;0.60;0.60;;;;;;;;;;5065319;28;20242;-71
2022/01/08 09:42:35;;;;;;;0.87;0.80;;;;;;;;;;5061827;28;20242;-71
2022/01/08 09:45:22;;;;;;;0.60;0.60;;;;;;;;;;5064544;28;20238;-72
2022/01/08 09:48:09;;;;;;;0.70;0.70;;;;;;;;;;5065321;28;20238;-72
2022/01/08 09:50:56;;;;;;;0.87;0.87;;;;;;;;;;5060557;28;20253;-71
2022/01/08 09:53:45;;;;;;;0.87;0.87;;;;;;;;;;5064353;28;20669;-71
2022/01/08 09:56:32;;;;;;;1.30;1.20;;;;;;;;;;5059847;28;20215;-71
2022/01/08 09:59:20;;;;;;;0.90;0.90;;;;;;;;;;5065358;28;20225;-71
2022/01/08 10:02:07;;;;;;;0.87;0.87;;;;;;;;;;5064218;28;20253;-71
2022/01/08 10:04:54;;;;;;;1.00;1.00;;;;;;;;;;5056529;28;20684;-71
2022/01/08 10:07:41;;;;;;;0.80;0.80;;;;;;;;;;5065410;28;20293;-71
2022/01/08 10:10:30;;;;;;;1.30;1.20;;;;;;;;;;5061549;28;20218;-71
2022/01/08 10:13:23;;;;;;;1.70;1.10;;;;;;;;;;5066282;28;20204;-71
2022/01/08 10:19:21;;;;;;;0.90;0.90;;;;;;;;;;5061600;28;20758;-71
2022/01/08 10:22:15;;;;;;;1.03;1.00;;;;;;;;;;5062663;28;20232;-71
2022/01/08 10:25:12;;;;;;;0.90;0.90;;;;;;;;;;5062349;28;20285;-70
2022/01/08 10:28:00;;;;;;;1.13;1.03;;;;;;;;;;5059654;28;20261;-71
2022/01/08 10:30:47;;;;;;;1.00;1.00;;;;;;;;;;5065419;28;20597;-71
2022/01/08 10:33:34;;;;;;;1.37;1.20;;;;;;;;;;5061455;28;20277;-71
2022/01/08 10:36:23;;;;;;;1.00;1.00;;;;;;;;;;5062663;28;20307;-71
2022/01/08 10:39:13;;;;;;;1.00;1.00;;;;;;;;;;5063861;28;20219;-66
2022/01/08 10:42:01;;;;;;;1.10;1.00;;;;;;;;;;5055192;28;20203;-66
2022/01/08 10:44:51;;;;;;;1.20;1.10;;;;;;;;;;5062634;28;20239;-66
2022/01/08 10:47:38;;;;;;;1.00;0.90;;;;;;;;;;5062000;28;20709;-66
2022/01/08 10:50:25;;;;;;;0.90;0.90;;;;;;;;;;5063403;28;20219;-66
2022/01/08 10:53:11;;;;;;;0.87;0.80;;;;;;;;;;5064491;28;20288;-66
2022/01/08 10:55:58;;;;;;;0.93;0.93;;;;;;;;;;5063089;28;20231;-66
2022/01/08 10:58:45;;;;;;;0.70;0.70;;;;;;;;;;5062976;28;20210;-66
2022/01/08 11:01:51;;;;;;;0.93;0.93;;;;;;;;;;5062632;28;20681;-66
2022/01/08 11:04:45;;;;;;;0.83;0.83;;;;;;;;;;5062050;28;20254;-67
2022/01/08 11:07:33;;;;;;;0.90;0.90;;;;;;;;;;5063925;28;20253;-66
2022/01/08 11:10:22;;;;;;;1.23;1.13;;;;;;;;;;5059444;28;20294;-66
2022/01/08 11:13:13;;;;;;;0.90;0.90;;;;;;;;;;5062390;28;20690;-66
2022/01/08 11:16:00;;;;;;;1.07;1.07;;;;;;;;;;5062166;28;20620;-66
2022/01/08 11:18:49;;;;;;;1.20;1.20;;;;;;;;;;5062331;28;20214;-66
2022/01/08 11:21:36;;;;;;;1.13;1.10;;;;;;;;;;5062179;28;20232;-66
2022/01/08 11:24:25;;;;;;;1.13;1.13;;;;;;;;;;5061961;28;20323;-67
2022/01/08 11:27:14;;;;;;;0.93;0.80;;;;;;;;;;5060634;28;20223;-66
2022/01/08 11:30:09;;;;;;;1.00;1.00;;;;;;;;;;5059246;28;20260;-66
2022/01/08 11:33:00;;;;;;;0.97;0.90;;;;;;;;;;5064818;28;20345;-66
2022/01/08 11:35:50;;;;;;;0.93;0.93;;;;;;;;;;5062019;28;20262;-66
2022/01/08 11:38:38;;;;;;;0.80;0.80;;;;;;;;;;5064196;28;20296;-66
2022/01/08 11:41:28;;;;;;;0.80;0.80;;;;;;;;;;5062108;28;20571;-66
2022/01/08 11:44:16;;;;;;;0.87;0.80;;;;;;;;;;5064413;28;20699;-66
2022/01/08 11:47:04;;;;;;;0.67;0.67;;;;;;;;;;5061280;28;20295;-66
2022/01/08 11:49:52;;;;;;;0.60;0.60;;;;;;;;;;5059819;28;20257;-66
2022/01/08 11:52:40;;;;;;;0.50;0.50;;;;;;;;;;5063694;28;20292;-66
2022/01/08 11:55:34;;;;;;;0.60;0.60;;;;;;;;;;5059804;28;20220;-66
2022/01/08 11:58:23;;;;;;;0.60;0.60;;;;;;;;;;5062278;28;20219;-67
2022/01/08 12:01:13;;;;;;;0.67;0.67;;;;;;;;;;5066742;28;20271;-66
2022/01/08 12:04:01;;;;;;;0.63;0.63;;;;;;;;;;5060636;28;20234;-66
2022/01/08 12:06:47;;;;;;;0.67;0.67;;;;;;;;;;5066844;28;20250;-66
2022/01/08 12:09:40;;;;;;;0.87;0.60;;;;;;;;;;5062569;28;20270;-66
2022/01/08 12:12:43;;;;;;;0.77;0.77;;;;;;;;;;5064064;28;20207;-66
2022/01/08 12:15:50;;;;;;;0.40;0.40;;;;;;;;;;5067515;28;20233;-66
2022/01/08 12:18:53;;;;;;;0.50;0.50;;;;;;;;;;5067764;28;20216;-66
2022/01/08 12:21:42;;;;;;;0.50;0.50;;;;;;;;;;5062632;28;20208;-66
2022/01/08 12:24:38;;;;;;;0.70;0.60;;;;;;;;;;5068041;28;20219;-66
2022/01/08 12:27:40;;;;;;;0.40;0.40;;;;;;;;;;5061913;28;20366;-66
2022/01/08 12:30:37;;;;;;;0.50;0.50;;;;;;;;;;5062651;28;20264;-66
2022/01/08 12:33:24;;;;;;;0.60;0.50;;;;;;;;;;5066833;28;20314;-66
2022/01/08 12:36:32;;;;;;;0.40;0.40;;;;;;;;;;5064472;28;20275;-66
2022/01/08 12:39:24;;;;;;;0.40;0.40;;;;;;;;;;5062697;28;20721;-66
2022/01/08 12:42:39;;;;;;;0.50;0.50;;;;;;;;;;5063922;28;20216;-67
2022/01/08 12:45:32;;;;;;;0.40;0.40;;;;;;;;;;5062316;28;20640;-66
2022/01/08 12:48:20;;;;;;;0.40;0.40;;;;;;;;;;5065596;28;20250;-65
2022/01/08 12:51:07;;;;;;;0.43;0.43;;;;;;;;;;5064600;28;20365;-66
2022/01/08 12:54:06;;;;;;;0.47;0.47;;;;;;;;;;5063858;28;20690;-66
2022/01/08 12:56:54;;;;;;;0.40;0.40;;;;;;;;;;5064698;28;20243;-66
2022/01/08 12:59:43;;;;;;;0.40;0.40;;;;;;;;;;5063340;28;20218;-66
2022/01/08 13:02:30;;;;;;;0.53;0.53;;;;;;;;;;5063914;28;20219;-66
2022/01/08 13:05:17;;;;;;;0.40;0.40;;;;;;;;;;5066517;28;20238;-66
2022/01/08 13:08:04;;;;;;;0.30;0.30;;;;;;;;;;5061290;28;20204;-66
2022/01/08 13:10:56;;;;;;;0.30;0.30;;;;;;;;;;5061735;28;20375;-66
2022/01/08 13:13:45;;;;;;;0.33;0.33;;;;;;;;;;5063515;28;20291;-66
2022/01/08 13:16:37;;;;;;;0.40;0.40;;;;;;;;;;5068354;28;20703;-66
2022/01/08 13:19:26;;;;;;;0.43;0.43;;;;;;;;;;5066415;28;20216;-66
2022/01/08 13:22:13;;;;;;;0.50;0.50;;;;;;;;;;5063179;28;20200;-67
2022/01/08 13:25:00;;;;;;;0.37;0.37;;;;;;;;;;5065453;28;20795;-66
2022/01/08 13:27:49;;;;;;;0.60;0.60;;;;;;;;;;5063746;28;20333;-66
2022/01/08 13:30:37;;;;;;;0.60;0.60;;;;;;;;;;5066802;28;20241;-66
2022/01/08 13:33:28;;;;;;;0.93;0.93;;;;;;;;;;5065791;28;20676;-66
2022/01/08 13:36:15;;;;;;;0.60;0.60;;;;;;;;;;5067435;28;20277;-67
2022/01/08 13:39:02;;;;;;;0.67;0.67;;;;;;;;;;5067444;28;20671;-66
2022/01/08 13:41:49;;;;;;;1.77;0.70;;;;;;;;;;5063824;28;20241;-66
2022/01/08 13:44:35;;;;;;;0.77;0.77;;;;;;;;;;5066967;28;20216;-66
2022/01/08 13:47:31;;;;;;;0.90;0.90;;;;;;;;;;5064425;28;20679;-67
2022/01/08 13:50:23;;;;;;;0.73;0.73;;;;;;;;;;5064204;28;20732;-66
2022/01/08 13:53:12;;;;;;;0.90;0.90;;;;;;;;;;5061256;28;20221;-66
2022/01/08 13:56:01;;;;;;;0.70;0.70;;;;;;;;;;5063188;28;20229;-67
2022/01/08 13:58:48;;;;;;;0.80;0.80;;;;;;;;;;5063014;28;20213;-67
2022/01/08 14:01:39;;;;;;;0.77;0.77;;;;;;;;;;5059306;28;20294;-66
2022/01/08 14:04:28;;;;;;;0.80;0.80;;;;;;;;;;5066179;28;20406;-67
2022/01/08 14:07:16;;;;;;;0.73;0.73;;;;;;;;;;5062847;28;20218;-66
2022/01/08 14:10:04;;;;;;;0.90;0.80;;;;;;;;;;5064360;28;20442;-66
2022/01/08 14:13:05;;;;;;;0.70;0.70;;;;;;;;;;5062267;28;20223;-66
2022/01/08 14:16:00;;;;;;;0.80;0.80;;;;;;;;;;5061100;28;20219;-66
2022/01/08 14:18:47;;;;;;;0.80;0.80;;;;;;;;;;5063429;28;20200;-66
2022/01/08 14:21:34;;;;;;;0.70;0.70;;;;;;;;;;5063283;28;20736;-66
2022/01/08 14:24:24;;;;;;;0.80;0.80;;;;;;;;;;5062843;28;20220;-66
2022/01/08 14:27:13;;;;;;;0.97;0.97;;;;;;;;;;5063299;28;20572;-66
2022/01/08 14:30:09;;;;;;;0.83;0.83;;;;;;;;;;5060210;28;20211;-67
2022/01/08 14:33:04;;;;;;;0.80;0.80;;;;;;;;;;5065400;28;20212;-67
2022/01/08 14:36:00;;;;;;;0.80;0.80;;;;;;;;;;5063460;28;20235;-66
2022/01/08 14:38:48;;;;;;;0.90;0.90;;;;;;;;;;5061868;28;20589;-66
2022/01/08 14:41:39;;;;;;;0.70;0.70;;;;;;;;;;5061285;28;20204;-66
2022/01/08 14:44:27;;;;;;;1.00;1.00;;;;;;;;;;5065828;28;20201;-66
2022/01/08 14:47:14;;;;;;;0.83;0.83;;;;;;;;;;5062594;28;20203;-66
2022/01/08 14:50:01;;;;;;;0.90;0.90;;;;;;;;;;5062619;28;20215;-66
2022/01/08 14:52:49;;;;;;;0.90;0.90;;;;;;;;;;5065026;28;20216;-66
2022/01/08 14:55:38;;;;;;;1.03;1.03;;;;;;;;;;5064574;28;20242;-66
2022/01/08 14:58:27;;;;;;;0.87;0.87;;;;;;;;;;5062024;28;20262;-66
2022/01/08 15:01:14;;;;;;;0.93;0.93;;;;;;;;;;5056714;28;20211;-66
2022/01/08 15:04:00;;;;;;;1.00;1.00;;;;;;;;;;5062922;28;20231;-66
2022/01/08 15:06:48;;;;;;;0.97;0.97;;;;;;;;;;5062034;28;20247;-66
2022/01/08 15:09:35;;;;;;;1.23;1.20;;;;;;;;;;5063815;28;20251;-66
2022/01/08 15:12:22;;;;;;;1.23;1.23;;;;;;;;;;5060726;28;20200;-66
2022/01/08 15:15:12;;;;;;;1.13;1.13;;;;;;;;;;5060473;28;20204;-66
2022/01/08 15:17:59;;;;;;;1.00;1.00;;;;;;;;;;5065021;28;20252;-66
2022/01/08 15:20:46;;;;;;;1.83;1.07;;;;;;;;;;5059647;28;20219;-66
2022/01/08 15:23:33;;;;;;;1.10;1.10;;;;;;;;;;5061537;28;20203;-74
2022/01/08 15:26:20;;;;;;;1.17;1.17;;;;;;;;;;5060299;28;20353;-68
2022/01/08 15:29:07;;;;;;;1.17;1.17;;;;;;;;;;5062851;28;20293;-67
2022/01/08 15:31:56;;;;;;;1.10;1.10;;;;;;;;;;5061678;28;20287;-67
2022/01/08 15:34:43;;;;;;;1.10;1.10;;;;;;;;;;5064699;28;20602;-67
2022/01/08 15:37:30;;;;;;;1.07;1.07;;;;;;;;;;5065728;28;20228;-67
2022/01/08 15:40:17;;;;;;;1.47;1.37;;;;;;;;;;5068277;28;20240;-67
2022/01/08 15:43:04;;;;;;;1.40;1.30;;;;;;;;;;5065185;28;20263;-67
2022/01/08 15:45:51;;;;;;;1.27;1.23;;;;;;;;;;5067112;28;20292;-67
2022/01/08 15:48:39;;;;;;;1.60;1.50;;;;;;;;;;5064075;28;20718;-67
2022/01/08 15:51:26;;;;;;;1.20;1.20;;;;;;;;;;5065640;28;20216;-67
2022/01/08 15:54:13;;;;;;;1.20;1.20;;;;;;;;;;5066912;28;20218;-68
2022/01/08 15:57:00;;;;;;;1.13;1.13;;;;;;;;;;5062681;28;20224;-67
2022/01/08 15:59:47;;;;;;;1.60;1.50;;;;;;;;;;5068872;28;20215;-68
2022/01/08 16:02:34;;;;;;;1.37;1.27;;;;;;;;;;5066309;28;20260;-68
2022/01/08 16:05:25;;;;;;;1.20;1.20;;;;;;;;;;5066396;28;20278;-67
2022/01/08 16:08:12;;;;;;;1.20;1.20;;;;;;;;;;5066328;28;20236;-67
2022/01/08 16:10:59;;;;;;;1.53;1.43;;;;;;;;;;5065020;28;20239;-67
2022/01/08 16:13:45;;;;;;;1.30;1.30;;;;;;;;;;5066527;28;20216;-68
2022/01/08 16:16:33;;;;;;;1.40;1.40;;;;;;;;;;5066927;28;20703;-67
2022/01/08 16:19:20;;;;;;;1.53;1.43;;;;;;;;;;5062673;28;20232;-67
2022/01/08 16:22:08;;;;;;;1.43;1.43;;;;;;;;;;5066818;28;20211;-67
2022/01/08 16:24:55;;;;;;;1.70;1.60;;;;;;;;;;5065734;28;20214;-67
2022/01/08 16:27:42;;;;;;;1.27;1.27;;;;;;;;;;5065019;28;20542;-67
2022/01/08 16:30:29;;;;;;;1.43;1.43;;;;;;;;;;5065035;28;20357;-68
2022/01/08 16:33:16;;;;;;;1.80;1.70;;;;;;;;;;5061001;28;20700;-67
2022/01/08 16:36:03;;;;;;;1.33;1.33;;;;;;;;;;5064851;28;20257;-67
2022/01/08 16:38:52;;;;;;;1.50;1.40;;;;;;;;;;5067249;28;20217;-67
2022/01/08 16:41:39;;;;;;;1.37;1.37;;;;;;;;;;5063221;28;20220;-67
2022/01/08 16:44:27;;;;;;;1.70;1.60;;;;;;;;;;5065433;28;20203;-67
2022/01/08 16:47:17;;;;;;;1.30;1.20;;;;;;;;;;5060277;28;20282;-67
2022/01/08 16:50:06;;;;;;;1.10;1.10;;;;;;;;;;5063525;28;20217;-67
2022/01/08 16:52:53;;;;;;;1.50;1.40;;;;;;;;;;5064945;28;20690;-67
2022/01/08 16:55:43;;;;;;;1.10;1.10;;;;;;;;;;5065361;28;20266;-67
2022/01/08 16:58:30;;;;;;;1.60;1.50;;;;;;;;;;5064445;28;20235;-68
2022/01/08 17:01:17;;;;;;;1.50;1.40;;;;;;;;;;5063020;28;20365;-67
2022/01/08 17:04:04;;;;;;;1.20;1.20;;;;;;;;;;5064340;28;20328;-67
2022/01/08 17:06:51;;;;;;;1.40;1.30;;;;;;;;;;5064271;28;20680;-67
2022/01/08 17:09:39;;;;;;;1.00;1.00;;;;;;;;;;5064087;28;20237;-67
2022/01/08 17:12:27;;;;;;;1.30;1.30;;;;;;;;;;5065104;28;20208;-68